Nossa Senhora do Livramento, Brazil
Current Conditions -  °F | °C
As of 12:00 PM on Friday 24 Oct 2014 (Local Time) from SBCY Reporting Station
Broken Clouds Broken Clouds  
Wind Chill: 91°   Ceiling: 10000
Heat Index: 95°   Visibility: 6mi
Dew Point: 68°   Wind: 10mph
Humidity: 46%   Direction: 350°N
Pressure: 29.91"   Gusts: NA
Location:  15.78°S, 56.35°W
Report Text: SBCY 241500Z 35009KT 9999 SCT020 BKN100 33/20 Q1013
Loading
Personal Weather Stations






























Interactive Weather Map
Tropical Storm Tracking
New forecast layout! Learn more

10-Day Weather Forecast

Advertisements
Track Severe Weather on mobile